createdAt,value
2018-12-14T00:00:11.166Z,145.45
2018-12-14T00:02:39.545Z,143.60
2018-12-14T00:05:08.347Z,144.68
2018-12-14T00:07:36.752Z,146.65
2018-12-14T00:10:06.713Z,144.95
2018-12-14T00:12:35.116Z,145.53
2018-12-14T00:15:04.766Z,142.00
2018-12-14T00:17:33.223Z,144.70
2018-12-14T00:20:01.699Z,145.60
2018-12-14T00:22:31.145Z,146.10
2018-12-14T00:24:59.449Z,145.23
2018-12-14T00:30:24.435Z,143.90
2018-12-14T00:32:53.108Z,144.13
2018-12-14T00:35:22.552Z,142.05
2018-12-14T00:37:50.929Z,142.17
2018-12-14T00:40:19.993Z,144.80
2018-12-14T00:42:49.010Z,144.35
2018-12-14T00:45:17.316Z,142.70
2018-12-14T00:47:45.703Z,145.40
2018-12-14T00:50:14.066Z,144.97
2018-12-14T00:52:42.394Z,147.43
2018-12-14T00:55:10.806Z,146.40
2018-12-14T00:57:39.442Z,143.95
2018-12-14T01:00:09.592Z,145.12
2018-12-14T01:02:39.809Z,148.78
2018-12-14T01:05:08.301Z,141.75
2018-12-14T01:07:37.020Z,146.85
2018-12-14T01:10:06.100Z,145.10
2018-12-14T01:12:35.293Z,142.57
2018-12-14T01:15:04.750Z,143.62
2018-12-14T01:17:33.212Z,144.45
2018-12-14T01:20:01.572Z,144.25
2018-12-14T01:22:29.933Z,151.35
2018-12-14T01:24:58.613Z,146.60
2018-12-14T01:27:26.897Z,143.93
2018-12-14T01:29:55.571Z,143.62
2018-12-14T01:32:24.349Z,145.12
2018-12-14T01:34:52.668Z,148.27
2018-12-14T01:37:21.109Z,148.32
2018-12-14T01:39:49.449Z,149.72
2018-12-14T01:45:15.285Z,149.62
2018-12-14T01:47:43.739Z,148.93
2018-12-14T01:50:17.030Z,148.57
2018-12-14T01:52:45.631Z,147.43
2018-12-14T01:55:13.996Z,148.65
2018-12-14T01:57:42.906Z,153.25
2018-12-14T02:00:11.313Z,147.68
2018-12-14T02:02:39.773Z,149.55
2018-12-14T02:05:08.451Z,148.15
2018-12-14T02:07:36.853Z,154.78
2018-12-14T02:10:05.383Z,148.72
2018-12-14T02:12:33.727Z,151.55
2018-12-14T02:15:02.037Z,152.90
2018-12-14T02:17:30.440Z,154.05
2018-12-14T02:19:58.804Z,154.83
2018-12-14T02:22:27.448Z,152.72
2018-12-14T02:24:55.879Z,151.93
2018-12-14T02:27:24.249Z,152.27
2018-12-14T02:29:52.713Z,148.78
2018-12-14T02:32:21.002Z,152.85
2018-12-14T02:34:49.499Z,149.40
2018-12-14T02:37:18.016Z,153.25
2018-12-14T02:39:46.455Z,149.60
2018-12-14T02:42:19.248Z,150.78
2018-12-14T02:44:45.084Z,147.17
2018-12-14T02:47:13.377Z,148.05
2018-12-14T02:49:41.722Z,144.07
2018-12-14T02:52:10.880Z,150.10
2018-12-14T02:54:39.169Z,149.47
2018-12-14T02:57:08.083Z,150.47
2018-12-14T02:59:36.378Z,147.60
2018-12-14T03:02:05.415Z,150.62
2018-12-14T03:04:33.825Z,152.45
2018-12-14T03:07:02.274Z,153.25
2018-12-14T03:09:30.607Z,153.97
2018-12-14T03:11:59.567Z,153.72
2018-12-14T03:14:28.939Z,157.12
2018-12-14T03:16:59.271Z,158.27
2018-12-14T03:19:28.498Z,157.45
2018-12-14T03:21:57.385Z,157.65
2018-12-14T03:24:25.717Z,157.62
2018-12-14T03:26:54.048Z,159.50
2018-12-14T03:29:22.485Z,160.10
2018-12-14T03:31:51.054Z,164.57
2018-12-14T03:34:19.420Z,162.57
2018-12-14T03:36:47.831Z,162.05
2018-12-14T03:39:16.178Z,163.75
2018-12-14T03:41:44.597Z,164.37
2018-12-14T03:44:12.914Z,166.40
2018-12-14T03:46:41.782Z,166.43
2018-12-14T03:49:10.166Z,164.90
2018-12-14T03:51:38.552Z,170.72
2018-12-14T03:54:06.905Z,165.68
2018-12-14T03:56:35.271Z,166.60
2018-12-14T03:59:03.663Z,171.28
2018-12-14T04:01:32.192Z,167.53
2018-12-14T04:04:00.539Z,167.37
2018-12-14T04:06:28.976Z,166.43
2018-12-14T04:08:57.335Z,170.10
2018-12-14T04:11:26.983Z,170.15
2018-12-14T04:13:55.391Z,171.15
2018-12-14T04:16:23.824Z,168.07
2018-12-14T04:18:52.840Z,169.85
2018-12-14T04:21:21.626Z,167.40
2018-12-14T04:23:50.328Z,165.77
2018-12-14T04:26:18.705Z,163.68
2018-12-14T04:28:47.044Z,162.75
2018-12-14T04:31:15.450Z,163.18
2018-12-14T04:33:43.942Z,157.88
2018-12-14T04:36:12.293Z,160.43
2018-12-14T04:38:40.747Z,162.92
2018-12-14T04:41:09.148Z,158.40
2018-12-14T04:43:37.470Z,156.20
2018-12-14T04:46:05.854Z,155.27
2018-12-14T04:48:34.146Z,153.07
2018-12-14T04:51:02.705Z,151.85
2018-12-14T04:53:31.127Z,151.10
2018-12-14T04:55:59.796Z,150.68
2018-12-14T04:58:28.213Z,150.60
2018-12-14T05:00:58.047Z,147.28
2018-12-14T05:03:26.390Z,148.82
2018-12-14T05:05:54.722Z,149.05
2018-12-14T05:08:23.116Z,147.87
2018-12-14T05:10:51.475Z,148.75
2018-12-14T05:13:19.793Z,151.30
2018-12-14T05:15:48.173Z,147.10
2018-12-14T05:18:16.600Z,149.25
2018-12-14T05:20:44.902Z,150.32
2018-12-14T05:23:13.266Z,152.43
2018-12-14T05:25:41.620Z,148.43
2018-12-14T05:28:09.996Z,150.97
2018-12-14T05:30:38.671Z,151.50
2018-12-14T05:33:07.069Z,152.37
2018-12-14T05:38:34.800Z,151.30
2018-12-14T05:41:03.190Z,151.75
2018-12-14T05:43:31.536Z,150.42
2018-12-14T05:45:59.978Z,156.93
2018-12-14T05:48:28.341Z,151.65
2018-12-14T05:50:56.698Z,149.70
2018-12-14T05:53:25.234Z,151.30
2018-12-14T05:55:53.615Z,146.07
2018-12-14T05:58:22.265Z,150.93
2018-12-14T06:00:50.677Z,147.32
2018-12-14T06:03:19.000Z,148.75
2018-12-14T06:05:47.303Z,149.25
2018-12-14T06:08:16.707Z,147.23
2018-12-14T06:10:45.010Z,149.95
2018-12-14T06:13:13.393Z,146.93
2018-12-14T06:15:41.831Z,150.22
2018-12-14T06:18:10.166Z,147.47
2018-12-14T06:20:38.572Z,148.17
2018-12-14T06:23:06.916Z,144.77
2018-12-14T06:25:35.444Z,142.93
2018-12-14T06:28:03.868Z,144.87
2018-12-14T06:30:32.264Z,143.70
2018-12-14T06:33:01.436Z,143.75
2018-12-14T06:35:30.717Z,147.37
2018-12-14T06:37:59.076Z,140.20
2018-12-14T06:40:27.504Z,139.22
2018-12-14T06:42:55.843Z,140.45
2018-12-14T06:45:24.314Z,139.05
2018-12-14T06:47:52.724Z,140.92
2018-12-14T06:50:21.061Z,144.20
2018-12-14T06:52:49.982Z,140.35
2018-12-14T06:55:18.381Z,144.50
2018-12-14T06:57:46.703Z,138.85
2018-12-14T07:00:15.043Z,143.67
2018-12-14T07:02:43.465Z,139.75
2018-12-14T07:05:12.319Z,143.23
2018-12-14T07:07:41.677Z,141.60
2018-12-14T07:10:10.003Z,140.55
2018-12-14T07:12:38.390Z,140.97
2018-12-14T07:15:07.783Z,141.70
2018-12-14T07:17:36.131Z,141.20
2018-12-14T07:20:05.942Z,143.05
2018-12-14T07:22:34.326Z,140.82
2018-12-14T07:25:02.631Z,140.80
2018-12-14T07:27:31.685Z,140.15
2018-12-14T07:30:00.032Z,140.75
2018-12-14T07:32:28.360Z,142.95
2018-12-14T07:34:56.710Z,140.82
2018-12-14T07:37:25.066Z,143.37
2018-12-14T07:39:53.387Z,140.47
2018-12-14T07:42:21.813Z,141.12
2018-12-14T07:44:50.385Z,139.45
2018-12-14T07:50:17.943Z,142.77
2018-12-14T07:52:46.394Z,147.10
2018-12-14T07:55:15.538Z,141.88
2018-12-14T07:57:43.922Z,144.70
2018-12-14T08:00:12.463Z,151.53
2018-12-14T08:02:40.966Z,157.72
2018-12-14T08:05:09.329Z,154.85
2018-12-14T08:07:37.681Z,155.93
2018-12-14T08:10:06.576Z,157.10
2018-12-14T08:12:34.979Z,162.97
2018-12-14T08:15:03.824Z,159.35
2018-12-14T08:17:32.199Z,158.25
2018-12-14T08:20:00.721Z,163.47
2018-12-14T08:22:29.087Z,160.65
2018-12-14T08:24:57.459Z,158.85
2018-12-14T08:27:25.788Z,160.50
2018-12-14T08:29:54.140Z,165.47
2018-12-14T08:32:22.541Z,169.02
2018-12-14T08:34:51.418Z,159.80
2018-12-14T08:37:20.467Z,162.45
2018-12-14T08:39:48.767Z,167.30
2018-12-14T08:42:17.121Z,165.35
2018-12-14T08:44:46.265Z,166.77
2018-12-14T08:47:15.104Z,167.47
2018-12-14T08:49:43.412Z,166.37
2018-12-14T08:52:11.895Z,173.70
2018-12-14T08:54:40.317Z,172.78
2018-12-14T08:57:08.804Z,176.40
2018-12-14T08:59:37.191Z,181.33
2018-12-14T09:02:05.662Z,187.85
2018-12-14T09:04:34.102Z,191.03
2018-12-14T09:07:02.473Z,199.07
2018-12-14T09:09:30.899Z,193.97
2018-12-14T09:11:59.227Z,204.35
2018-12-14T09:14:28.115Z,196.55
2018-12-14T09:16:56.503Z,205.35
2018-12-14T09:19:25.849Z,200.65
2018-12-14T09:21:54.182Z,207.75
2018-12-14T09:24:23.376Z,210.80
2018-12-14T09:26:51.765Z,212.00
2018-12-14T09:29:20.335Z,211.20
2018-12-14T09:31:49.041Z,219.45
2018-12-14T09:34:17.397Z,217.82
2018-12-14T09:36:46.371Z,215.77
2018-12-14T09:39:14.759Z,213.90
2018-12-14T09:41:43.092Z,216.55
2018-12-14T09:44:11.547Z,216.97
2018-12-14T09:46:41.767Z,213.95
2018-12-14T09:49:10.162Z,206.90
2018-12-14T09:51:38.697Z,212.25
2018-12-14T09:54:07.055Z,213.28
2018-12-14T09:56:35.489Z,214.50
2018-12-14T09:59:03.979Z,219.43
2018-12-14T10:01:32.396Z,224.47
2018-12-14T10:04:00.819Z,227.57
2018-12-14T10:06:29.243Z,228.23
2018-12-14T10:08:57.702Z,230.45
2018-12-14T10:11:26.005Z,232.87
2018-12-14T10:14:00.669Z,236.10
2018-12-14T10:16:24.963Z,228.88
2018-12-14T10:18:54.389Z,227.50
2018-12-14T10:21:23.915Z,232.90
2018-12-14T10:23:52.300Z,225.20
2018-12-14T10:26:20.758Z,220.02
2018-12-14T10:28:49.138Z,215.00
2018-12-14T10:31:17.466Z,216.20
2018-12-14T10:33:45.779Z,202.00
2018-12-14T10:36:14.173Z,197.37
2018-12-14T10:38:43.240Z,197.22
2018-12-14T10:41:12.005Z,192.57
2018-12-14T10:43:40.349Z,190.12
2018-12-14T10:46:08.784Z,188.00
2018-12-14T10:48:37.159Z,212.23
2018-12-14T10:51:05.600Z,179.47
2018-12-14T10:53:34.960Z,184.50
2018-12-14T10:56:03.434Z,181.22
2018-12-14T10:58:31.743Z,178.05
2018-12-14T11:03:59.425Z,182.65
2018-12-14T11:06:28.657Z,181.22
2018-12-14T11:08:57.166Z,184.50
2018-12-14T11:11:25.550Z,181.75
2018-12-14T11:13:54.920Z,182.95
2018-12-14T11:16:23.326Z,184.32
2018-12-14T11:18:51.742Z,183.52
2018-12-14T11:21:20.087Z,184.95
2018-12-14T11:23:48.556Z,187.43
2018-12-14T11:26:16.927Z,194.57
2018-12-14T11:28:45.377Z,193.22
2018-12-14T11:31:13.852Z,195.35
2018-12-14T11:33:42.306Z,191.32
2018-12-14T11:36:10.752Z,188.90
2018-12-14T11:38:39.125Z,192.20
2018-12-14T11:41:09.496Z,193.82
2018-12-14T11:43:37.890Z,192.37
2018-12-14T11:46:06.181Z,200.32
2018-12-14T11:48:34.581Z,197.85
2018-12-14T11:51:02.960Z,197.85
2018-12-14T11:53:31.421Z,206.32
2018-12-14T11:55:59.824Z,200.83
2018-12-14T12:01:25.598Z,196.15
2018-12-14T12:03:53.942Z,191.57
2018-12-14T12:06:22.325Z,189.07
2018-12-14T12:08:51.413Z,190.70
2018-12-14T12:11:19.792Z,193.93
2018-12-14T12:13:48.145Z,195.77
2018-12-14T12:16:16.524Z,190.18
2018-12-14T12:18:44.844Z,188.20
2018-12-14T12:21:13.195Z,189.85
2018-12-14T12:23:41.635Z,190.60
2018-12-14T12:26:10.051Z,188.75
2018-12-14T12:28:38.345Z,192.13
2018-12-14T12:34:04.579Z,195.22
2018-12-14T12:36:32.896Z,197.00
2018-12-14T12:39:01.419Z,196.80
2018-12-14T12:41:29.764Z,198.72
2018-12-14T12:43:58.104Z,196.78
2018-12-14T12:46:26.486Z,201.52
2018-12-14T12:48:55.039Z,205.43
2018-12-14T12:51:24.215Z,200.57
2018-12-14T12:53:52.559Z,208.53
2018-12-14T12:56:21.429Z,207.45
2018-12-14T12:58:50.043Z,211.60
2018-12-14T13:01:18.493Z,208.50
2018-12-14T13:03:46.858Z,208.70
2018-12-14T13:06:15.212Z,212.00
2018-12-14T13:08:43.566Z,214.12
2018-12-14T13:11:12.325Z,209.70
2018-12-14T13:13:41.107Z,207.77
2018-12-14T13:16:09.446Z,208.00
2018-12-14T13:18:38.394Z,209.10
2018-12-14T13:21:07.735Z,211.60
2018-12-14T13:23:36.504Z,213.82
2018-12-14T13:26:05.970Z,224.40
2018-12-14T13:28:36.723Z,216.50
2018-12-14T13:31:06.347Z,216.93
2018-12-14T13:33:35.039Z,215.07
2018-12-14T13:36:03.660Z,215.00
2018-12-14T13:38:32.470Z,212.00
2018-12-14T13:41:00.926Z,208.05
2018-12-14T13:43:29.549Z,210.28
2018-12-14T13:45:57.900Z,212.70
2018-12-14T13:48:26.405Z,212.68
2018-12-14T13:50:54.849Z,210.70
2018-12-14T13:53:23.153Z,208.53
2018-12-14T13:55:51.809Z,210.55
2018-12-14T13:58:20.567Z,208.00
2018-12-14T14:00:50.230Z,215.60
2018-12-14T14:03:18.702Z,212.45
2018-12-14T14:05:47.396Z,212.63
2018-12-14T14:08:15.840Z,217.18
2018-12-14T14:10:44.181Z,214.80
2018-12-14T14:13:12.547Z,214.30
2018-12-14T14:15:40.951Z,214.05
2018-12-14T14:18:09.908Z,214.82
2018-12-14T14:20:38.231Z,223.95
2018-12-14T14:23:06.567Z,224.55
2018-12-14T14:25:35.964Z,218.42
2018-12-14T14:28:05.228Z,224.02
2018-12-14T14:30:35.042Z,217.62
2018-12-14T14:33:03.366Z,219.13
2018-12-14T14:35:32.606Z,218.85
2018-12-14T14:38:01.016Z,226.47
2018-12-14T14:40:29.403Z,214.80
2018-12-14T14:42:57.826Z,219.18
2018-12-14T14:45:26.192Z,218.75
2018-12-14T14:47:54.607Z,216.73
2018-12-14T14:50:22.926Z,216.20
2018-12-14T14:52:51.365Z,217.83
2018-12-14T14:55:19.669Z,213.80
2018-12-14T14:57:48.156Z,217.65
2018-12-14T15:00:16.781Z,221.10
2018-12-14T15:02:45.171Z,225.40
2018-12-14T15:05:13.558Z,228.98
2018-12-14T15:07:41.884Z,227.13
2018-12-14T15:10:10.281Z,211.62
2018-12-14T15:12:39.225Z,207.70
2018-12-14T15:15:07.815Z,206.15
2018-12-14T15:17:36.224Z,211.57
2018-12-14T15:20:05.035Z,208.17
2018-12-14T15:22:34.304Z,215.20
2018-12-14T15:25:02.808Z,217.32
2018-12-14T15:27:31.111Z,215.45
2018-12-14T15:30:02.169Z,218.88
2018-12-14T15:32:30.469Z,213.95
2018-12-14T15:34:59.329Z,214.05
2018-12-14T15:37:28.659Z,220.15
2018-12-14T15:39:57.969Z,208.20
2018-12-14T15:42:26.333Z,213.68
2018-12-14T15:44:55.350Z,209.30
2018-12-14T15:47:23.758Z,218.20
2018-12-14T15:49:52.065Z,219.03
2018-12-14T15:52:21.982Z,220.25
2018-12-14T15:54:50.604Z,216.48
2018-12-14T15:57:19.240Z,216.77
2018-12-14T15:59:47.681Z,225.70
2018-12-14T16:02:16.134Z,227.32
2018-12-14T16:04:45.196Z,218.48
2018-12-14T16:07:13.694Z,215.25
2018-12-14T16:09:42.612Z,218.17
2018-12-14T16:12:10.995Z,216.78
2018-12-14T16:14:39.452Z,218.85
2018-12-14T16:17:08.773Z,213.45
2018-12-14T16:19:37.420Z,210.28
2018-12-14T16:22:05.821Z,209.92
2018-12-14T16:24:35.195Z,206.28
2018-12-14T16:27:04.169Z,203.45
2018-12-14T16:29:33.062Z,206.35
2018-12-14T16:32:01.506Z,202.97
2018-12-14T16:34:29.839Z,198.10
2018-12-14T16:36:58.232Z,200.60
2018-12-14T16:39:26.694Z,202.80
2018-12-14T16:41:55.305Z,200.00
2018-12-14T16:44:23.697Z,197.32
2018-12-14T16:46:52.120Z,197.72
2018-12-14T16:49:20.858Z,193.00
2018-12-14T16:54:48.346Z,194.00
2018-12-14T16:57:17.187Z,190.68
2018-12-14T16:59:45.570Z,192.92
2018-12-14T17:02:13.894Z,193.67
2018-12-14T17:04:42.283Z,198.70
2018-12-14T17:07:10.672Z,194.22
2018-12-14T17:09:39.045Z,187.05
2018-12-14T17:12:07.408Z,190.50
2018-12-14T17:14:35.698Z,186.90
2018-12-14T17:17:04.190Z,186.77
2018-12-14T17:19:33.642Z,187.12
2018-12-14T17:22:02.070Z,189.67
2018-12-14T17:24:31.133Z,179.37
2018-12-14T17:26:59.588Z,182.00
2018-12-14T17:29:29.500Z,178.57
2018-12-14T17:31:57.886Z,182.83
2018-12-14T17:34:26.717Z,187.12
2018-12-14T17:36:55.766Z,185.50
2018-12-14T17:39:24.192Z,184.90
2018-12-14T17:41:52.561Z,186.47
2018-12-14T17:44:20.887Z,176.93
2018-12-14T17:46:49.375Z,182.25
2018-12-14T17:49:17.705Z,177.38
2018-12-14T17:51:46.104Z,176.20
2018-12-14T17:54:14.432Z,184.50
2018-12-14T17:56:43.033Z,178.05
2018-12-14T17:59:11.419Z,184.22
2018-12-14T18:01:39.909Z,183.15
2018-12-14T18:04:08.367Z,180.60
2018-12-14T18:06:36.703Z,180.50
2018-12-14T18:09:05.356Z,180.45
2018-12-14T18:11:33.788Z,178.85
2018-12-14T18:14:02.112Z,177.93
2018-12-14T18:16:30.948Z,179.87
2018-12-14T18:18:59.297Z,176.22
2018-12-14T18:21:27.645Z,177.50
2018-12-14T18:23:55.973Z,178.70
2018-12-14T18:26:24.354Z,177.07
2018-12-14T18:28:52.633Z,177.53
2018-12-14T18:31:21.042Z,175.40
2018-12-14T18:33:50.280Z,184.28
2018-12-14T18:36:18.793Z,182.40
2018-12-14T18:38:47.154Z,175.93
2018-12-14T18:41:15.557Z,177.30
2018-12-14T18:43:46.316Z,175.62
2018-12-14T18:46:14.784Z,180.25
2018-12-14T18:48:43.165Z,175.82
2018-12-14T18:51:11.584Z,175.65
2018-12-14T18:53:42.113Z,177.93
2018-12-14T18:56:10.468Z,181.43
2018-12-14T18:58:39.114Z,179.12
2018-12-14T19:04:04.713Z,175.45
2018-12-14T19:06:33.064Z,184.40
2018-12-14T19:09:01.620Z,180.70
2018-12-14T19:11:29.994Z,177.22
2018-12-14T19:13:58.330Z,175.20
2018-12-14T19:16:26.659Z,177.80
2018-12-14T19:18:55.105Z,176.50
2018-12-14T19:21:23.786Z,183.52
2018-12-14T19:23:52.133Z,181.20
2018-12-14T19:26:21.094Z,185.05
2018-12-14T19:28:49.496Z,182.32
2018-12-14T19:31:18.728Z,179.70
2018-12-14T19:33:47.086Z,183.42
2018-12-14T19:36:15.473Z,185.80
2018-12-14T19:38:43.818Z,179.42
2018-12-14T19:41:12.267Z,184.35
2018-12-14T19:43:40.573Z,178.07
2018-12-14T19:46:08.965Z,179.05
2018-12-14T19:48:38.223Z,179.47
2018-12-14T19:51:06.608Z,188.90
2018-12-14T19:53:35.438Z,187.75
2018-12-14T19:56:03.969Z,186.75
2018-12-14T19:58:32.825Z,191.28
2018-12-14T20:01:01.257Z,192.90
2018-12-14T20:03:30.172Z,191.65
2018-12-14T20:05:58.836Z,195.38
2018-12-14T20:08:27.403Z,199.72
2018-12-14T20:10:55.934Z,196.47
2018-12-14T20:13:24.352Z,195.35
2018-12-14T20:15:57.479Z,191.88
2018-12-14T20:18:24.312Z,188.42
2018-12-14T20:20:52.703Z,193.00
2018-12-14T20:23:21.047Z,190.55
2018-12-14T20:25:49.390Z,190.73
2018-12-14T20:28:17.796Z,189.07
2018-12-14T20:30:46.258Z,195.75
2018-12-14T20:33:14.906Z,191.70
2018-12-14T20:35:43.263Z,196.63
2018-12-14T20:38:11.549Z,198.80
2018-12-14T20:40:40.999Z,194.60
2018-12-14T20:43:09.347Z,199.02
2018-12-14T20:45:37.665Z,191.73
2018-12-14T20:48:06.081Z,199.53
2018-12-14T20:53:33.534Z,192.37
2018-12-14T20:56:01.872Z,191.80
2018-12-14T20:58:30.289Z,192.98
2018-12-14T21:00:58.668Z,192.80
2018-12-14T21:03:27.653Z,193.87
2018-12-14T21:05:56.730Z,194.45
2018-12-14T21:08:25.042Z,193.82
2018-12-14T21:10:53.693Z,194.77
2018-12-14T21:13:22.388Z,193.15
2018-12-14T21:15:50.878Z,193.40
2018-12-14T21:18:19.216Z,195.55
2018-12-14T21:20:47.895Z,190.22
2018-12-14T21:23:16.215Z,194.05
2018-12-14T21:25:44.522Z,196.15
2018-12-14T21:28:12.919Z,193.65
2018-12-14T21:30:41.504Z,197.85
2018-12-14T21:33:09.919Z,190.18
2018-12-14T21:35:38.613Z,193.87
2018-12-14T21:38:06.968Z,195.77
2018-12-14T21:40:35.334Z,188.12
2018-12-14T21:43:04.415Z,190.97
2018-12-14T21:45:32.799Z,191.62
2018-12-14T21:48:01.227Z,191.32
2018-12-14T21:50:29.686Z,187.92
2018-12-14T21:52:58.008Z,190.43
2018-12-14T21:55:26.468Z,185.80
2018-12-14T21:57:54.970Z,192.62
2018-12-14T22:00:23.389Z,190.97
2018-12-14T22:02:51.717Z,197.20
2018-12-14T22:05:20.470Z,188.75
2018-12-14T22:07:48.859Z,195.92
2018-12-14T22:10:17.275Z,198.35
2018-12-14T22:12:45.629Z,203.60
2018-12-14T22:15:13.951Z,199.85
2018-12-14T22:17:43.166Z,196.82
2018-12-14T22:20:11.820Z,200.85
2018-12-14T22:22:40.163Z,198.28
2018-12-14T22:25:08.984Z,193.20
2018-12-14T22:27:37.309Z,195.95
2018-12-14T22:30:06.827Z,189.15
2018-12-14T22:32:35.258Z,187.57
2018-12-14T22:35:04.303Z,186.52
2018-12-14T22:37:32.694Z,185.57
2018-12-14T22:40:01.080Z,183.55
2018-12-14T22:42:29.465Z,185.03
2018-12-14T22:44:57.843Z,187.43
2018-12-14T22:47:26.455Z,187.03
2018-12-14T22:49:54.843Z,183.03
2018-12-14T22:52:23.249Z,188.50
2018-12-14T22:54:51.893Z,187.60
2018-12-14T22:57:20.194Z,187.65
2018-12-14T22:59:48.758Z,187.53
2018-12-14T23:02:17.413Z,192.10
2018-12-14T23:04:45.940Z,192.68
2018-12-14T23:07:15.325Z,193.40
2018-12-14T23:09:44.087Z,188.45
2018-12-14T23:12:12.418Z,191.80
2018-12-14T23:14:40.778Z,189.05
2018-12-14T23:17:09.322Z,191.85
2018-12-14T23:19:37.866Z,190.68
2018-12-14T23:22:06.593Z,194.37
2018-12-14T23:24:34.920Z,188.23
2018-12-14T23:27:03.351Z,198.68
2018-12-14T23:29:31.790Z,193.15
2018-12-14T23:32:00.135Z,197.17
2018-12-14T23:34:28.505Z,193.40
2018-12-14T23:36:56.817Z,193.37
2018-12-14T23:39:25.142Z,195.55
2018-12-14T23:41:53.485Z,200.07
2018-12-14T23:44:22.158Z,197.02
2018-12-14T23:46:50.539Z,198.55
2018-12-14T23:49:19.292Z,206.93
2018-12-14T23:51:47.591Z,200.78
2018-12-14T23:54:16.113Z,203.70
2018-12-14T23:56:44.705Z,203.53
2018-12-14T23:59:13.730Z,200.15
